Pego, Spain
Current Conditions -  °F | °C
As of 12:00 AM on Tuesday 25 Nov 2014 (Local Time) from LEAL Reporting Station
Clear Clear  
Wind Chill: 59°   Ceiling: Unl
Heat Index: 59°   Visibility: 6mi
Dew Point: 54°   Wind: 1mph
Humidity: 82%   Direction: NA
Pressure: 30.03"   Gusts: NA
Location:  38.84°N, 0.12°W
Report Text: LEAL 242300Z VRB01KT CAVOK 15/12 Q1017 NOSIG
Loading
Personal Weather Stations






























Interactive Weather Map New forecast layout! Learn more

10-Day Weather Forecast

Advertisements
Track Severe Weather on mobile